createdAt,value
2016-03-26T00:00:07.795Z,-7.87
2016-03-26T00:00:22.076Z,-8.03
2016-03-26T00:00:35.998Z,-7.98
2016-03-26T00:00:50.373Z,-7.93
2016-03-26T00:01:04.048Z,-7.96
2016-03-26T00:01:17.939Z,-7.88
2016-03-26T00:01:31.673Z,-7.88
2016-03-26T00:01:45.532Z,-7.88
2016-03-26T00:01:59.472Z,-7.9
2016-03-26T00:02:12.862Z,-7.96
2016-03-26T00:02:26.737Z,-7.96
2016-03-26T00:02:40.550Z,-7.94
2016-03-26T00:02:54.487Z,-7.9
2016-03-26T00:03:08.272Z,-8.02
2016-03-26T00:03:21.975Z,-8.03
2016-03-26T00:03:36.069Z,-8.02
2016-03-26T00:03:49.944Z,-8.07
2016-03-26T00:04:03.117Z,-8.12
2016-03-26T00:04:17.242Z,-8.03
2016-03-26T00:04:31.039Z,-8.16
2016-03-26T00:04:45.039Z,-8.03
2016-03-26T00:04:58.762Z,-8.07
2016-03-26T00:05:12.934Z,-8.15
2016-03-26T00:05:26.903Z,-8.15
2016-03-26T00:05:40.950Z,-8.05
2016-03-26T00:05:54.715Z,-8.1
2016-03-26T00:06:08.998Z,-8.06
2016-03-26T00:06:22.608Z,-8.13
2016-03-26T00:06:36.530Z,-8.09
2016-03-26T00:06:50.202Z,-8.09
2016-03-26T00:07:04.189Z,-8.13
2016-03-26T00:07:18.423Z,-8.1
2016-03-26T00:07:32.580Z,-8.09
2016-03-26T00:07:46.376Z,-8.06
2016-03-26T00:08:00.129Z,-8.07
2016-03-26T00:08:14.176Z,-8.18
2016-03-26T00:08:28.551Z,-8.12
2016-03-26T00:08:42.504Z,-8.12
2016-03-26T00:08:56.208Z,-8.15
2016-03-26T00:09:10.272Z,-8.05
2016-03-26T00:09:24.475Z,-8.16
2016-03-26T00:09:38.866Z,-8.09
2016-03-26T00:09:52.756Z,-8.16
2016-03-26T00:10:06.588Z,-8.18
2016-03-26T00:10:20.259Z,-8.05
2016-03-26T00:10:34.713Z,-8.12
2016-03-26T00:10:48.541Z,-8.13
2016-03-26T00:11:02.434Z,-8.18
2016-03-26T00:11:16.372Z,-8.13
2016-03-26T00:11:29.419Z,-8.12
2016-03-26T00:11:43.497Z,-8.2
2016-03-26T00:11:57.343Z,-8.21
2016-03-26T00:12:11.186Z,-8.13
2016-03-26T00:12:25.030Z,-8.24
2016-03-26T00:12:39.030Z,-8.24
2016-03-26T00:12:52.921Z,-8.2
2016-03-26T00:13:06.705Z,-8.24
2016-03-26T00:13:20.502Z,-8.2
2016-03-26T00:13:34.455Z,-8.24
2016-03-26T00:13:48.549Z,-8.21
2016-03-26T00:14:05.458Z,-8.3
2016-03-26T00:14:19.317Z,-8.2
2016-03-26T00:14:32.958Z,-8.24
2016-03-26T00:14:46.849Z,-8.24
2016-03-26T00:15:00.772Z,-8.26
2016-03-26T00:15:15.132Z,-8.21
2016-03-26T00:15:29.163Z,-8.3
2016-03-26T00:15:43.054Z,-8.24
2016-03-26T00:15:57.088Z,-8.26
2016-03-26T00:16:11.150Z,-8.15
2016-03-26T00:16:25.119Z,-8.26
2016-03-26T00:16:42.479Z,-8.21
2016-03-26T00:16:56.810Z,-8.13
2016-03-26T00:17:10.560Z,-8.26
2016-03-26T00:17:24.263Z,-8.16
2016-03-26T00:17:38.138Z,-8.21
2016-03-26T00:17:51.919Z,-8.27
2016-03-26T00:18:06.046Z,-8.15
2016-03-26T00:18:19.999Z,-8.24
2016-03-26T00:18:33.859Z,-8.23
2016-03-26T00:18:47.859Z,-8.28
2016-03-26T00:19:02.080Z,-8.21
2016-03-26T00:19:19.190Z,-8.16
2016-03-26T00:19:33.080Z,-8.2
2016-03-26T00:19:47.002Z,-8.15
2016-03-26T00:20:01.068Z,-8.27
2016-03-26T00:20:15.146Z,-8.21
2016-03-26T00:20:29.115Z,-8.23
2016-03-26T00:20:42.771Z,-8.24
2016-03-26T00:20:56.710Z,-8.26
2016-03-26T00:21:10.429Z,-8.24
2016-03-26T00:21:41.195Z,-8.2
2016-03-26T00:22:22.916Z,-8.16
2016-03-26T00:22:36.995Z,-8.15
2016-03-26T00:22:51.104Z,-8.2
2016-03-26T00:23:05.059Z,-8.12
2016-03-26T00:23:22.606Z,-8.21
2016-03-26T00:23:36.465Z,-8.21
2016-03-26T00:23:50.340Z,-8.13
2016-03-26T00:24:03.703Z,-8.21
2016-03-26T00:24:17.578Z,-8.24
2016-03-26T00:24:31.484Z,-8.26
2016-03-26T00:24:45.468Z,-8.26
2016-03-26T00:24:59.331Z,-8.26
2016-03-26T00:25:13.253Z,-8.2
2016-03-26T00:25:27.299Z,-8.18
2016-03-26T00:25:41.503Z,-8.13
2016-03-26T00:25:55.440Z,-8.16
2016-03-26T00:26:09.302Z,-8.15
2016-03-26T00:26:22.287Z,-8.15
2016-03-26T00:26:36.068Z,-8.16
2016-03-26T00:26:49.865Z,-8.26
2016-03-26T00:27:06.555Z,-8.05
2016-03-26T00:27:20.462Z,-8.26
2016-03-26T00:27:34.493Z,-8.15
2016-03-26T00:27:48.634Z,-8.23
2016-03-26T00:28:02.636Z,-8.16
2016-03-26T00:28:16.495Z,-8.18
2016-03-26T00:28:30.651Z,-8.12
2016-03-26T00:28:44.448Z,-8.1
2016-03-26T00:28:58.279Z,-8.16
2016-03-26T00:29:12.154Z,-8.15
2016-03-26T00:29:26.060Z,-8.15
2016-03-26T00:29:39.764Z,-8.2
2016-03-26T00:29:53.717Z,-8.15
2016-03-26T00:30:06.891Z,-8.15
2016-03-26T00:30:20.750Z,-8.12
2016-03-26T00:30:35.359Z,-8.18
2016-03-26T00:30:49.375Z,-8.24
2016-03-26T00:31:03.315Z,-8.15
2016-03-26T00:31:17.081Z,-8.21
2016-03-26T00:31:30.956Z,-8.21
2016-03-26T00:31:44.784Z,-8.2
2016-03-26T00:31:58.787Z,-8.3
2016-03-26T00:32:12.537Z,-8.15
2016-03-26T00:32:26.443Z,-8.21
2016-03-26T00:32:40.522Z,-8.2
2016-03-26T00:32:53.475Z,-8.2
2016-03-26T00:33:07.461Z,-8.26
2016-03-26T00:33:21.289Z,-8.18
2016-03-26T00:33:34.289Z,-8.15
2016-03-26T00:33:48.164Z,-8.12
2016-03-26T00:34:02.464Z,-8.23
2016-03-26T00:34:16.448Z,-8.21
2016-03-26T00:34:30.386Z,-8.12
2016-03-26T00:34:44.198Z,-8.27
2016-03-26T00:34:58.045Z,-8.23
2016-03-26T00:35:11.873Z,-8.16
2016-03-26T00:35:25.670Z,-8.21
2016-03-26T00:35:39.670Z,-8.15
2016-03-26T00:35:53.451Z,-8.28
2016-03-26T00:36:07.173Z,-8.27
2016-03-26T00:36:21.220Z,-8.28
2016-03-26T00:36:35.408Z,-8.18
2016-03-26T00:36:49.486Z,-8.2
2016-03-26T00:37:03.441Z,-8.27
2016-03-26T00:37:17.378Z,-8.21
2016-03-26T00:37:34.300Z,-8.26
2016-03-26T00:37:48.363Z,-8.27
2016-03-26T00:38:02.117Z,-8.2
2016-03-26T00:38:16.242Z,-8.13
2016-03-26T00:38:30.085Z,-8.2
2016-03-26T00:38:44.085Z,-8.2
2016-03-26T00:38:57.744Z,-8.18
2016-03-26T00:39:11.603Z,-8.18
2016-03-26T00:39:25.478Z,-8.15
2016-03-26T00:39:39.322Z,-8.23
2016-03-26T00:39:53.009Z,-8.27
2016-03-26T00:40:07.277Z,-8.28
2016-03-26T00:40:21.121Z,-8.2
2016-03-26T00:40:35.058Z,-8.24
2016-03-26T00:40:49.293Z,-8.24
2016-03-26T00:41:03.061Z,-8.16
2016-03-26T00:41:16.764Z,-8.2
2016-03-26T00:41:30.643Z,-8.16
2016-03-26T00:41:44.315Z,-8.24
2016-03-26T00:41:58.081Z,-8.27
2016-03-26T00:42:11.849Z,-8.26
2016-03-26T00:42:25.724Z,-8.18
2016-03-26T00:42:39.490Z,-8.18
2016-03-26T00:42:53.303Z,-8.2
2016-03-26T00:43:07.851Z,-8.21
2016-03-26T00:43:21.758Z,-8.2
2016-03-26T00:43:35.742Z,-8.23
2016-03-26T00:43:49.726Z,-8.21
2016-03-26T00:44:03.573Z,-8.2
2016-03-26T00:44:17.511Z,-8.26
2016-03-26T00:44:31.511Z,-8.18
2016-03-26T00:44:45.464Z,-8.24
2016-03-26T00:44:59.264Z,-8.2
2016-03-26T00:45:13.186Z,-8.18
2016-03-26T00:45:26.467Z,-8.2
2016-03-26T00:45:40.217Z,-8.23
2016-03-26T00:45:54.201Z,-8.24
2016-03-26T00:46:22.173Z,-8.16
2016-03-26T00:46:36.079Z,-8.2
2016-03-26T00:46:49.845Z,-8.28
2016-03-26T00:47:03.409Z,-8.3
2016-03-26T00:47:17.269Z,-8.21
2016-03-26T00:47:30.956Z,-8.27
2016-03-26T00:47:44.987Z,-8.15
2016-03-26T00:47:58.909Z,-8.26
2016-03-26T00:48:12.834Z,-8.23
2016-03-26T00:48:40.928Z,-8.18
2016-03-26T00:48:54.756Z,-8.2
2016-03-26T00:49:08.618Z,-8.2
2016-03-26T00:49:22.509Z,-8.2
2016-03-26T00:49:36.509Z,-8.21
2016-03-26T00:49:50.290Z,-8.13
2016-03-26T00:50:04.167Z,-8.28
2016-03-26T00:50:18.058Z,-8.21
2016-03-26T00:50:32.605Z,-8.16
2016-03-26T00:50:46.558Z,-8.13
2016-03-26T00:51:00.686Z,-8.24
2016-03-26T00:51:14.498Z,-8.13
2016-03-26T00:51:28.405Z,-8.18
2016-03-26T00:51:42.248Z,-8.3
2016-03-26T00:51:55.983Z,-8.18
2016-03-26T00:52:09.891Z,-8.21
2016-03-26T00:52:23.750Z,-8.3
2016-03-26T00:52:37.719Z,-8.31
2016-03-26T00:52:51.875Z,-8.27
2016-03-26T00:53:05.676Z,-8.26
2016-03-26T00:53:19.754Z,-8.3
2016-03-26T00:53:32.879Z,-8.28
2016-03-26T00:53:46.879Z,-8.26
2016-03-26T00:54:00.850Z,-8.3
2016-03-26T00:54:14.710Z,-8.21
2016-03-26T00:54:28.788Z,-8.15
2016-03-26T00:54:42.585Z,-8.3
2016-03-26T00:54:56.960Z,-8.18
2016-03-26T00:55:10.697Z,-8.13
2016-03-26T00:55:24.759Z,-8.26
2016-03-26T00:55:38.900Z,-8.21
2016-03-26T00:55:51.963Z,-8.26
2016-03-26T00:56:05.902Z,-8.21
2016-03-26T00:56:19.590Z,-8.15
2016-03-26T00:56:33.418Z,-8.23
2016-03-26T00:56:47.230Z,-8.3
2016-03-26T00:57:01.639Z,-8.3
2016-03-26T00:57:15.655Z,-8.26
2016-03-26T00:57:29.343Z,-8.23
2016-03-26T00:57:43.202Z,-8.24
2016-03-26T00:57:57.155Z,-8.26
2016-03-26T00:58:11.064Z,-8.21
2016-03-26T00:58:25.236Z,-8.18
2016-03-26T00:58:39.330Z,-8.23
2016-03-26T00:58:53.236Z,-8.2
2016-03-26T00:59:07.208Z,-8.27
2016-03-26T00:59:21.161Z,-8.21
2016-03-26T00:59:34.911Z,-8.28
2016-03-26T00:59:48.880Z,-8.18
2016-03-26T01:00:02.882Z,-8.21
2016-03-26T01:00:17.210Z,-8.2
2016-03-26T01:00:31.351Z,-8.24
2016-03-26T01:00:45.335Z,-8.18
2016-03-26T01:00:59.194Z,-8.21
2016-03-26T01:01:13.260Z,-8.23
2016-03-26T01:01:27.072Z,-8.24
2016-03-26T01:01:55.369Z,-8.21
2016-03-26T01:02:09.357Z,-8.21
2016-03-26T01:02:23.560Z,-8.2
2016-03-26T01:02:37.325Z,-8.26
2016-03-26T01:02:51.435Z,-8.3
2016-03-26T01:03:05.266Z,-8.13
2016-03-26T01:03:19.485Z,-8.2
2016-03-26T01:03:33.453Z,-8.15
2016-03-26T01:03:47.563Z,-8.23
2016-03-26T01:04:01.580Z,-8.27
2016-03-26T01:04:15.533Z,-8.26
2016-03-26T01:04:29.533Z,-8.23
2016-03-26T01:04:43.393Z,-8.2
2016-03-26T01:04:57.362Z,-8.18
2016-03-26T01:05:11.239Z,-8.12
2016-03-26T01:05:25.207Z,-8.18
2016-03-26T01:05:39.176Z,-8.16
2016-03-26T01:05:53.051Z,-8.16
2016-03-26T01:06:06.929Z,-8.24
2016-03-26T01:06:20.851Z,-8.15
2016-03-26T01:06:34.554Z,-8.12
2016-03-26T01:06:48.476Z,-8.12
2016-03-26T01:07:01.730Z,-8.15
2016-03-26T01:07:15.480Z,-8.12
2016-03-26T01:07:29.105Z,-8.13
2016-03-26T01:07:43.214Z,-8.12
2016-03-26T01:07:57.199Z,-8.12
2016-03-26T01:08:11.498Z,-8.13
2016-03-26T01:08:25.498Z,-8.16
2016-03-26T01:08:39.716Z,-8.12
2016-03-26T01:08:53.873Z,-8.12
2016-03-26T01:09:07.938Z,-8.18
2016-03-26T01:09:21.797Z,-8.13
2016-03-26T01:09:35.219Z,-8.12
2016-03-26T01:09:49.251Z,-8.13
2016-03-26T01:10:03.535Z,-8.15
2016-03-26T01:10:17.972Z,-8.12
2016-03-26T01:10:31.691Z,-8.15
2016-03-26T01:10:45.816Z,-8.13
2016-03-26T01:10:59.613Z,-8.1
2016-03-26T01:11:13.365Z,-8.16
2016-03-26T01:11:27.302Z,-8.1
2016-03-26T01:11:41.177Z,-8.13
2016-03-26T01:11:54.771Z,-8.1
2016-03-26T01:12:08.666Z,-8.13
2016-03-26T01:12:22.697Z,-8.13
2016-03-26T01:12:36.463Z,-8.02
2016-03-26T01:12:50.150Z,-8.07
2016-03-26T01:13:03.888Z,-8.06
2016-03-26T01:13:17.747Z,-8.13
2016-03-26T01:13:34.638Z,-8.07
2016-03-26T01:13:48.684Z,-8.12
2016-03-26T01:14:02.624Z,-8.13
2016-03-26T01:14:16.515Z,-8.12
2016-03-26T01:14:30.405Z,-8.06
2016-03-26T01:14:44.171Z,-8.09
2016-03-26T01:14:58.233Z,-8.13
2016-03-26T01:15:12.205Z,-8.13
2016-03-26T01:15:25.721Z,-8.07
2016-03-26T01:15:39.658Z,-8.06
2016-03-26T01:15:53.549Z,-8.09
2016-03-26T01:16:07.536Z,-8.13
2016-03-26T01:16:21.427Z,-8.12
2016-03-26T01:16:35.177Z,-8.12
2016-03-26T01:16:49.099Z,-8.13
2016-03-26T01:17:03.054Z,-8.07
2016-03-26T01:17:17.210Z,-8.15
2016-03-26T01:17:31.273Z,-8.12
2016-03-26T01:17:45.210Z,-8.16
2016-03-26T01:17:59.101Z,-8.1
2016-03-26T01:18:12.837Z,-8.02
2016-03-26T01:18:26.728Z,-8.12
2016-03-26T01:18:40.540Z,-8.13
2016-03-26T01:18:55.087Z,-8.07
2016-03-26T01:19:08.934Z,-8.07
2016-03-26T01:19:22.793Z,-7.96
2016-03-26T01:19:36.684Z,-8.12
2016-03-26T01:19:50.606Z,-8.07
2016-03-26T01:20:04.687Z,-7.98
2016-03-26T01:20:21.140Z,-7.99
2016-03-26T01:20:34.952Z,-8.03
2016-03-26T01:20:49.031Z,-7.99
2016-03-26T01:21:03.002Z,-8.12
2016-03-26T01:21:16.815Z,-7.99
2016-03-26T01:21:30.440Z,-8.03
2016-03-26T01:21:44.565Z,-8.03
2016-03-26T01:21:58.487Z,-8.05
2016-03-26T01:22:12.239Z,-8.02
2016-03-26T01:22:26.129Z,-8.03
2016-03-26T01:22:40.067Z,-8.13
2016-03-26T01:22:53.942Z,-8.13
2016-03-26T01:23:07.851Z,-8.13
2016-03-26T01:23:21.039Z,-8.03
2016-03-26T01:23:34.726Z,-8.02
2016-03-26T01:23:48.554Z,-8.05
2016-03-26T01:24:02.573Z,-7.96
2016-03-26T01:24:16.542Z,-8.07
2016-03-26T01:24:33.713Z,-7.98
2016-03-26T01:24:47.604Z,-8.02
2016-03-26T01:25:00.684Z,-7.96
2016-03-26T01:25:15.028Z,-8.02
2016-03-26T01:25:28.887Z,-7.99
2016-03-26T01:25:42.887Z,-8.03
2016-03-26T01:26:10.984Z,-7.94
2016-03-26T01:26:25.218Z,-7.96
2016-03-26T01:26:39.203Z,-7.99
2016-03-26T01:26:53.093Z,-8.03
2016-03-26T01:27:07.096Z,-7.98
2016-03-26T01:27:21.034Z,-7.98
2016-03-26T01:27:34.878Z,-7.94
2016-03-26T01:27:48.768Z,-7.9
2016-03-26T01:28:02.708Z,-7.91
2016-03-26T01:28:16.505Z,-7.88
2016-03-26T01:28:30.489Z,-7.93
2016-03-26T01:28:44.255Z,-7.9
2016-03-26T01:28:58.020Z,-7.96
2016-03-26T01:29:11.820Z,-7.94
2016-03-26T01:29:25.726Z,-7.91
2016-03-26T01:29:39.867Z,-7.94
2016-03-26T01:29:53.773Z,-8.02
2016-03-26T01:30:07.620Z,-7.96
2016-03-26T01:30:24.917Z,-7.96
2016-03-26T01:30:39.011Z,-7.99
2016-03-26T01:30:53.073Z,-7.99
2016-03-26T01:31:07.451Z,-7.96
2016-03-26T01:31:21.451Z,-7.96
2016-03-26T01:31:35.139Z,-8.03
2016-03-26T01:31:49.139Z,-8.02
2016-03-26T01:32:03.189Z,-8.02
2016-03-26T01:32:17.251Z,-7.98
2016-03-26T01:32:34.235Z,-8.02
2016-03-26T01:32:48.126Z,-8.03
2016-03-26T01:33:02.565Z,-7.99
2016-03-26T01:33:16.815Z,-7.98
2016-03-26T01:33:31.080Z,-8.06
2016-03-26T01:33:45.643Z,-8.06
2016-03-26T01:33:59.471Z,-8.1
2016-03-26T01:34:13.537Z,-8.02
2016-03-26T01:34:27.740Z,-7.99
2016-03-26T01:34:41.631Z,-8.07
2016-03-26T01:34:55.350Z,-8.1
2016-03-26T01:35:09.180Z,-8.12
2016-03-26T01:35:23.227Z,-8.05
2016-03-26T01:35:37.196Z,-8.07
2016-03-26T01:35:51.227Z,-7.99
2016-03-26T01:36:05.152Z,-8.03
2016-03-26T01:36:19.308Z,-8.16
2016-03-26T01:36:33.308Z,-8.15
2016-03-26T01:36:47.480Z,-8.1
2016-03-26T01:37:01.591Z,-8.03
2016-03-26T01:37:15.388Z,-8.09
2016-03-26T01:37:43.263Z,-8.09
2016-03-26T01:37:57.294Z,-8.06
2016-03-26T01:38:11.219Z,-8.07
2016-03-26T01:38:24.922Z,-8.15
2016-03-26T01:38:38.860Z,-8.13
2016-03-26T01:38:52.750Z,-8.07
2016-03-26T01:39:06.675Z,-7.99
2016-03-26T01:39:20.566Z,-8.02
2016-03-26T01:39:34.582Z,-7.94
2016-03-26T01:39:48.457Z,-8.03
2016-03-26T01:40:02.427Z,-8.05
2016-03-26T01:40:16.396Z,-7.99
2016-03-26T01:40:30.365Z,-8.12
2016-03-26T01:40:44.412Z,-8.1
2016-03-26T01:40:58.146Z,-8.07
2016-03-26T01:41:12.150Z,-8.1
2016-03-26T01:41:26.119Z,-8.07
2016-03-26T01:41:40.072Z,-8.16
2016-03-26T01:41:53.838Z,-8.12
2016-03-26T01:42:08.293Z,-8.07
2016-03-26T01:42:22.340Z,-8.12
2016-03-26T01:42:36.324Z,-8.05
2016-03-26T01:42:50.308Z,-8.07
2016-03-26T01:43:04.093Z,-8.03
2016-03-26T01:43:18.374Z,-8.12
2016-03-26T01:43:32.436Z,-8.16
2016-03-26T01:43:46.624Z,-8.15
2016-03-26T01:44:00.533Z,-8.12
2016-03-26T01:44:28.377Z,-8.1
2016-03-26T01:44:42.221Z,-8.09
2016-03-26T01:44:56.017Z,-8.12
2016-03-26T01:45:09.770Z,-8.1
2016-03-26T01:45:24.052Z,-7.98
2016-03-26T01:45:38.083Z,-8.12
2016-03-26T01:45:52.177Z,-8.1
2016-03-26T01:46:06.663Z,-8.06
2016-03-26T01:46:20.491Z,-8.15
2016-03-26T01:46:34.741Z,-8.07
2016-03-26T01:46:48.616Z,-8.12
2016-03-26T01:47:05.712Z,-8.09
2016-03-26T01:47:19.868Z,-8.07
2016-03-26T01:47:33.806Z,-8.13
2016-03-26T01:47:47.946Z,-8.09
2016-03-26T01:48:01.949Z,-8.02
2016-03-26T01:48:16.012Z,-8.07
2016-03-26T01:48:29.996Z,-8.1
2016-03-26T01:48:43.902Z,-8.03
2016-03-26T01:48:57.840Z,-8.09
2016-03-26T01:49:11.827Z,-8.06
2016-03-26T01:49:25.640Z,-8.05
2016-03-26T01:49:39.593Z,-8.12
2016-03-26T01:49:53.280Z,-8.13
2016-03-26T01:50:07.033Z,-8.12
2016-03-26T01:50:20.830Z,-8.1
2016-03-26T01:50:34.580Z,-8.1
2016-03-26T01:50:48.752Z,-8.15
2016-03-26T01:51:01.910Z,-7.99
2016-03-26T01:51:15.864Z,-8.12
2016-03-26T01:51:29.707Z,-8.1
2016-03-26T01:51:43.379Z,-8.1
2016-03-26T01:51:57.520Z,-8.1
2016-03-26T01:52:11.570Z,-8.13
2016-03-26T01:52:25.695Z,-8.02
2016-03-26T01:52:39.976Z,-8.12
2016-03-26T01:52:53.804Z,-8.09
2016-03-26T01:53:07.729Z,-8.05
2016-03-26T01:53:21.729Z,-8.05
2016-03-26T01:53:35.620Z,-8.12
2016-03-26T01:53:49.604Z,-8.09
2016-03-26T01:54:03.653Z,-8.15
2016-03-26T01:54:17.684Z,-8.18
2016-03-26T01:54:31.918Z,-8.13
2016-03-26T01:54:45.887Z,-8.1
2016-03-26T01:54:59.778Z,-8.02
2016-03-26T01:55:13.656Z,-8.07
2016-03-26T01:55:27.656Z,-8.12
2016-03-26T01:55:41.453Z,-8.03
2016-03-26T01:55:55.421Z,-8.12
2016-03-26T01:56:09.159Z,-8.1
2016-03-26T01:56:37.190Z,-8.09
2016-03-26T01:56:51.393Z,-8.02
2016-03-26T01:57:05.317Z,-8.13
2016-03-26T01:57:19.411Z,-8.12
2016-03-26T01:57:33.426Z,-8.1
2016-03-26T01:57:47.317Z,-8.1
2016-03-26T01:58:01.226Z,-8.12
2016-03-26T01:58:15.164Z,-8.12
2016-03-26T01:58:28.976Z,-8.07
2016-03-26T01:58:43.179Z,-8.15
2016-03-26T01:58:57.179Z,-8.1
2016-03-26T01:59:11.322Z,-8.12
2016-03-26T01:59:25.385Z,-8.15
2016-03-26T01:59:39.338Z,-8.2
2016-03-26T01:59:53.260Z,-8.1
2016-03-26T02:00:07.278Z,-8.1
2016-03-26T02:00:21.106Z,-8.07
2016-03-26T02:00:35.450Z,-8.1
2016-03-26T02:00:49.403Z,-8.13
2016-03-26T02:01:03.438Z,-8.12
2016-03-26T02:01:17.376Z,-8.09
2016-03-26T02:01:32.188Z,-8.09
2016-03-26T02:01:46.392Z,-8.13
2016-03-26T02:02:00.298Z,-8.12
2016-03-26T02:02:28.159Z,-8.18
2016-03-26T02:02:42.144Z,-8.13
2016-03-26T02:02:55.972Z,-8.1
2016-03-26T02:03:09.756Z,-8.15
2016-03-26T02:03:23.193Z,-8.1
2016-03-26T02:03:37.084Z,-8.15
2016-03-26T02:03:51.162Z,-8.09
2016-03-26T02:04:04.946Z,-8.09
2016-03-26T02:04:18.946Z,-8.13
2016-03-26T02:04:33.087Z,-8.09
2016-03-26T02:04:47.071Z,-8.1
2016-03-26T02:05:00.962Z,-8.07
2016-03-26T02:05:15.198Z,-8.18
2016-03-26T02:05:29.308Z,-8.12
2016-03-26T02:05:43.167Z,-8.15
2016-03-26T02:05:57.245Z,-8.07
2016-03-26T02:06:11.170Z,-8.07
2016-03-26T02:06:25.170Z,-8.13
2016-03-26T02:06:39.295Z,-8.12
2016-03-26T02:06:53.248Z,-8.07
2016-03-26T02:07:07.157Z,-8.06
2016-03-26T02:07:21.125Z,-8.13
2016-03-26T02:07:35.016Z,-8.05
2016-03-26T02:07:48.703Z,-8.13
2016-03-26T02:08:02.925Z,-8.09
2016-03-26T02:08:31.035Z,-8.13
2016-03-26T02:08:44.910Z,-8.1
2016-03-26T02:08:59.472Z,-8.07
2016-03-26T02:09:13.850Z,-8.12
2016-03-26T02:09:27.553Z,-8.07
2016-03-26T02:09:41.350Z,-8.1
2016-03-26T02:09:55.209Z,-8.12
2016-03-26T02:10:09.227Z,-8.09
2016-03-26T02:10:23.508Z,-8.13
2016-03-26T02:10:37.368Z,-8.12
2016-03-26T02:10:51.086Z,-8.07
2016-03-26T02:11:05.152Z,-8.12
2016-03-26T02:11:18.996Z,-8.06
2016-03-26T02:11:32.699Z,-8.09
2016-03-26T02:11:46.902Z,-8.05
2016-03-26T02:12:00.839Z,-8.1
2016-03-26T02:12:14.999Z,-8.1
2016-03-26T02:12:28.889Z,-8.02
2016-03-26T02:12:42.858Z,-8.13
2016-03-26T02:12:56.936Z,-8.07
2016-03-26T02:13:10.908Z,-8.07
2016-03-26T02:13:24.939Z,-8.03
2016-03-26T02:13:38.814Z,-8.03
2016-03-26T02:13:52.580Z,-8.13
2016-03-26T02:14:06.535Z,-8.03
2016-03-26T02:14:20.660Z,-8.06
2016-03-26T02:14:34.551Z,-8.09
2016-03-26T02:14:48.832Z,-8.06
2016-03-26T02:15:02.616Z,-8.06
2016-03-26T02:15:16.522Z,-8.07
2016-03-26T02:15:30.507Z,-8.12
2016-03-26T02:15:44.257Z,-8.06
2016-03-26T02:15:58.210Z,-7.99
2016-03-26T02:16:11.463Z,-8.02
2016-03-26T02:16:25.447Z,-8.07
2016-03-26T02:16:39.338Z,-8.1
2016-03-26T02:16:53.869Z,-7.99
2016-03-26T02:17:07.997Z,-8.06
2016-03-26T02:17:22.278Z,-8.07
2016-03-26T02:17:36.231Z,-8.06
2016-03-26T02:17:50.106Z,-7.99
2016-03-26T02:18:04.046Z,-8.02
2016-03-26T02:18:17.843Z,-8.06
2016-03-26T02:18:31.937Z,-8.02
2016-03-26T02:18:45.874Z,-7.98
2016-03-26T02:18:59.593Z,-7.99
2016-03-26T02:19:13.658Z,-8.06
2016-03-26T02:19:27.674Z,-8.02
2016-03-26T02:19:41.533Z,-8.13
2016-03-26T02:19:55.393Z,-8.1
2016-03-26T02:20:09.426Z,-8.13
2016-03-26T02:20:23.457Z,-7.96
2016-03-26T02:20:37.317Z,-7.98
2016-03-26T02:20:51.426Z,-8.1
2016-03-26T02:21:04.570Z,-7.99
2016-03-26T02:21:18.320Z,-8.03
2016-03-26T02:21:32.382Z,-8.05
2016-03-26T02:21:46.241Z,-8.03
2016-03-26T02:22:00.366Z,-8.03
2016-03-26T02:22:14.307Z,-8.02
2016-03-26T02:22:28.557Z,-7.94
2016-03-26T02:22:42.479Z,-7.9
2016-03-26T02:22:56.463Z,-8.03
2016-03-26T02:23:10.606Z,-7.98
2016-03-26T02:23:24.684Z,-7.94
2016-03-26T02:23:38.465Z,-7.94
2016-03-26T02:23:52.465Z,-7.98
2016-03-26T02:24:06.624Z,-8.02
2016-03-26T02:24:21.078Z,-7.96
2016-03-26T02:24:34.843Z,-8.03
2016-03-26T02:24:48.812Z,-7.99
2016-03-26T02:25:02.562Z,-8.03
2016-03-26T02:25:16.689Z,-7.91
2016-03-26T02:25:30.736Z,-7.99
2016-03-26T02:25:44.580Z,-7.93
2016-03-26T02:25:58.423Z,-8.02
2016-03-26T02:26:12.489Z,-7.88
2016-03-26T02:26:26.239Z,-7.98
2016-03-26T02:26:40.192Z,-7.99
2016-03-26T02:26:53.426Z,-8.02
2016-03-26T02:27:07.320Z,-7.9
2016-03-26T02:27:21.226Z,-7.9
2016-03-26T02:27:35.101Z,-7.91
2016-03-26T02:27:49.132Z,-7.9
2016-03-26T02:28:03.179Z,-7.96
2016-03-26T02:28:17.151Z,-7.96
2016-03-26T02:28:31.323Z,-7.93
2016-03-26T02:28:45.245Z,-7.96
2016-03-26T02:28:59.292Z,-7.96
2016-03-26T02:29:13.201Z,-7.88
2016-03-26T02:29:27.201Z,-7.93
2016-03-26T02:29:41.232Z,-7.88
2016-03-26T02:29:55.092Z,-7.96
2016-03-26T02:30:09.048Z,-7.93
2016-03-26T02:30:22.923Z,-7.98
2016-03-26T02:30:36.829Z,-7.98
2016-03-26T02:30:50.876Z,-7.98
2016-03-26T02:31:04.643Z,-7.98
2016-03-26T02:31:18.331Z,-7.87
2016-03-26T02:31:32.018Z,-7.94
2016-03-26T02:31:46.050Z,-7.9
2016-03-26T02:31:59.722Z,-7.87
2016-03-26T02:32:13.537Z,-7.94
2016-03-26T02:32:27.443Z,-7.9
2016-03-26T02:32:41.334Z,-7.99
2016-03-26T02:33:09.477Z,-7.91
2016-03-26T02:33:23.242Z,-7.99
2016-03-26T02:33:37.320Z,-7.93
2016-03-26T02:33:50.977Z,-7.86
2016-03-26T02:34:04.714Z,-7.93
2016-03-26T02:34:32.495Z,-7.94
2016-03-26T02:34:46.714Z,-7.88
2016-03-26T02:35:00.714Z,-7.88
2016-03-26T02:35:14.747Z,-7.98
2016-03-26T02:35:28.888Z,-7.84
2016-03-26T02:35:42.513Z,-7.91
2016-03-26T02:35:56.325Z,-7.98
2016-03-26T02:36:10.641Z,-7.93
2016-03-26T02:36:24.703Z,-7.88
2016-03-26T02:36:37.969Z,-7.91
2016-03-26T02:37:05.941Z,-7.93
2016-03-26T02:37:19.269Z,-7.87
2016-03-26T02:37:33.019Z,-7.88
2016-03-26T02:37:46.816Z,-7.87
2016-03-26T02:38:00.800Z,-8.03
2016-03-26T02:38:14.661Z,-7.96
2016-03-26T02:38:28.521Z,-7.99
2016-03-26T02:38:42.083Z,-7.87
2016-03-26T02:38:55.958Z,-7.96
2016-03-26T02:39:09.962Z,-7.9
2016-03-26T02:39:23.759Z,-7.86
2016-03-26T02:39:37.650Z,-7.94
2016-03-26T02:39:51.728Z,-7.86
2016-03-26T02:40:05.589Z,-7.88
2016-03-26T02:40:19.402Z,-7.94
2016-03-26T02:40:33.230Z,-7.9
2016-03-26T02:40:47.105Z,-7.86
2016-03-26T02:41:01.152Z,-7.83
2016-03-26T02:41:15.311Z,-7.9
2016-03-26T02:41:29.217Z,-7.99
2016-03-26T02:41:43.311Z,-7.9
2016-03-26T02:41:57.092Z,-7.88
2016-03-26T02:42:11.329Z,-7.88
2016-03-26T02:42:25.391Z,-7.96
2016-03-26T02:42:39.157Z,-7.9
2016-03-26T02:42:52.938Z,-7.93
2016-03-26T02:43:06.894Z,-7.87
2016-03-26T02:43:20.691Z,-7.8
2016-03-26T02:43:34.722Z,-7.88
2016-03-26T02:43:48.785Z,-7.83
2016-03-26T02:44:02.879Z,-7.81
2016-03-26T02:44:17.007Z,-7.81
2016-03-26T02:44:31.069Z,-7.9
2016-03-26T02:44:44.897Z,-7.87
2016-03-26T02:44:58.960Z,-7.83
2016-03-26T02:45:12.916Z,-7.83
2016-03-26T02:45:27.010Z,-7.83
2016-03-26T02:45:40.806Z,-7.8
2016-03-26T02:45:54.494Z,-7.87
2016-03-26T02:46:08.293Z,-7.84
2016-03-26T02:46:53.512Z,-7.77
2016-03-26T02:47:10.483Z,-7.86
2016-03-26T02:47:24.577Z,-7.77
2016-03-26T02:47:38.843Z,-7.81
2016-03-26T02:47:52.796Z,-7.86
2016-03-26T02:48:06.064Z,-7.8
2016-03-26T02:48:19.799Z,-7.77
2016-03-26T02:48:33.893Z,-7.8
2016-03-26T02:48:47.799Z,-7.72
2016-03-26T02:49:02.049Z,-7.81
2016-03-26T02:49:15.957Z,-7.8
2016-03-26T02:49:29.785Z,-7.77
2016-03-26T02:49:43.926Z,-7.8
2016-03-26T02:49:58.098Z,-7.75
2016-03-26T02:50:12.304Z,-7.87
2016-03-26T02:50:26.069Z,-7.7
2016-03-26T02:50:40.101Z,-7.76
2016-03-26T02:50:53.835Z,-7.86
2016-03-26T02:51:07.696Z,-7.69
2016-03-26T02:51:21.665Z,-7.86
2016-03-26T02:51:35.665Z,-7.73
2016-03-26T02:51:49.321Z,-7.76
2016-03-26T02:52:03.071Z,-7.8
2016-03-26T02:52:17.013Z,-7.81
2016-03-26T02:52:34.122Z,-7.8
2016-03-26T02:52:48.169Z,-7.8
2016-03-26T02:53:02.060Z,-7.8
2016-03-26T02:53:16.156Z,-7.76
2016-03-26T02:53:30.187Z,-7.77
2016-03-26T02:53:43.921Z,-7.75
2016-03-26T02:53:57.734Z,-7.69
2016-03-26T02:54:11.705Z,-7.73
2016-03-26T02:54:25.627Z,-7.75
2016-03-26T02:54:39.565Z,-7.8
2016-03-26T02:54:53.252Z,-7.81
2016-03-26T02:55:07.130Z,-7.8
2016-03-26T02:55:21.255Z,-7.8
2016-03-26T02:55:35.130Z,-7.76
2016-03-26T02:55:52.255Z,-7.84
2016-03-26T02:56:06.492Z,-7.77
2016-03-26T02:56:20.414Z,-7.81
2016-03-26T02:56:34.351Z,-7.73
2016-03-26T02:56:48.179Z,-7.75
2016-03-26T02:57:02.117Z,-7.65
2016-03-26T02:57:15.963Z,-7.72
2016-03-26T02:57:30.463Z,-7.66
2016-03-26T02:57:44.588Z,-7.69
2016-03-26T02:57:58.557Z,-7.65
2016-03-26T02:58:12.482Z,-7.7
2016-03-26T02:58:26.341Z,-7.75
2016-03-26T02:58:40.123Z,-7.72
2016-03-26T02:58:54.420Z,-7.69
2016-03-26T02:59:08.250Z,-7.73
2016-03-26T02:59:21.968Z,-7.72
2016-03-26T02:59:35.859Z,-7.7
2016-03-26T02:59:49.640Z,-7.7
2016-03-26T03:00:03.515Z,-7.73
2016-03-26T03:00:17.784Z,-7.69
2016-03-26T03:00:31.815Z,-7.72
2016-03-26T03:00:45.706Z,-7.76
2016-03-26T03:00:59.753Z,-7.75
2016-03-26T03:01:13.662Z,-7.73
2016-03-26T03:01:27.865Z,-7.65
2016-03-26T03:01:41.599Z,-7.76
2016-03-26T03:01:55.646Z,-7.67
2016-03-26T03:02:09.415Z,-7.7
2016-03-26T03:02:23.384Z,-7.73
2016-03-26T03:02:37.571Z,-7.75
2016-03-26T03:02:51.446Z,-7.69
2016-03-26T03:03:05.526Z,-7.73
2016-03-26T03:03:19.761Z,-7.69
2016-03-26T03:03:33.823Z,-7.72
2016-03-26T03:03:47.729Z,-7.72
2016-03-26T03:04:01.417Z,-7.72
2016-03-26T03:04:15.514Z,-7.69
2016-03-26T03:04:29.326Z,-7.77
2016-03-26T03:04:43.154Z,-7.73
2016-03-26T03:04:57.154Z,-7.77
2016-03-26T03:05:38.798Z,-7.7